Time;durP1;ratioP1;P1;durP2;ratioP2;P2;SDS_P1;SDS_P2;PMS_P1;PMS_P2;Temp;Humidity;BMP_temperature;BMP_pressure;BME280_temperature;BME280_humidity;BME280_pressure;Samples;Min_cycle;Max_cycle;Signal;HPM_P1;HPM_P2
2023/01/14 00:01:51;;;;;;;0.00;0.00;;;6.30;99.90;;;;;;5036540;28;20103;-70
2023/01/14 00:04:17;;;;;;;0.00;0.00;;;6.30;99.90;;;;;;5032376;28;20114;-71
2023/01/14 00:06:42;;;;;;;0.00;0.00;;;6.30;99.90;;;;;;5036188;28;20064;-71
2023/01/14 00:09:11;;;;;;;0.00;0.00;;;6.30;99.90;;;;;;5034382;28;20373;-71
2023/01/14 00:11:48;;;;;;;0.00;0.00;;;6.40;99.90;;;;;;5035831;28;20078;-70
2023/01/14 00:14:22;;;;;;;;;;;6.30;99.90;;;;;;5038429;28;20047;-71
2023/01/14 00:16:49;;;;;;;0.00;0.00;;;6.40;99.90;;;;;;5035593;28;19915;-70
2023/01/14 00:19:15;;;;;;;0.00;0.00;;;6.30;99.90;;;;;;5033141;28;20382;-70
2023/01/14 00:21:43;;;;;;;0.00;0.00;;;6.30;99.90;;;;;;5036864;28;20134;-71
2023/01/14 00:24:13;;;;;;;0.00;0.00;;;6.30;99.90;;;;;;5035848;28;20024;-71
2023/01/14 00:26:40;;;;;;;0.00;0.00;;;6.30;99.90;;;;;;5035432;28;20474;-70
2023/01/14 00:29:06;;;;;;;;;;;6.30;99.90;;;;;;5036908;28;20131;-70
2023/01/14 00:31:32;;;;;;;0.10;0.10;;;6.40;99.90;;;;;;5036971;28;19917;-70
2023/01/14 00:33:59;;;;;;;0.00;0.00;;;6.40;99.90;;;;;;5033394;28;20455;-70
2023/01/14 00:36:27;;;;;;;0.00;0.00;;;6.50;99.90;;;;;;5039533;28;20115;-70
2023/01/14 00:38:54;;;;;;;0.00;0.00;;;6.50;99.90;;;;;;5039576;28;20031;-71
2023/01/14 00:41:21;;;;;;;;;;;6.50;99.90;;;;;;5036219;28;20104;-71
2023/01/14 00:43:49;;;;;;;0.00;0.00;;;6.50;99.90;;;;;;5037095;28;20388;-71
2023/01/14 00:46:37;;;;;;;0.00;0.00;;;6.60;99.90;;;;;;5035546;28;20025;-71
2023/01/14 00:49:04;;;;;;;0.00;0.00;;;6.60;99.90;;;;;;5035346;28;20036;-71
2023/01/14 00:51:31;;;;;;;0.00;0.00;;;6.50;99.90;;;;;;5034490;28;20045;-70
2023/01/14 00:53:57;;;;;;;0.00;0.00;;;6.50;99.90;;;;;;5036787;28;20029;-71
2023/01/14 00:56:23;;;;;;;0.00;0.00;;;6.50;99.90;;;;;;5038808;28;20154;-70
2023/01/14 00:58:50;;;;;;;0.00;0.00;;;6.50;99.90;;;;;;5034495;28;20048;-70
2023/01/14 01:01:17;;;;;;;0.00;0.00;;;6.50;99.90;;;;;;5035141;28;20052;-71
2023/01/14 01:03:45;;;;;;;0.00;0.00;;;6.50;99.90;;;;;;5036252;28;20067;-71
2023/01/14 01:06:13;;;;;;;0.00;0.00;;;6.60;99.90;;;;;;5031559;28;20021;-71
2023/01/14 01:08:39;;;;;;;0.00;0.00;;;6.60;99.90;;;;;;5031911;28;20020;-71
2023/01/14 01:11:05;;;;;;;0.00;0.00;;;6.70;99.90;;;;;;5036721;28;20027;-71
2023/01/14 01:13:31;;;;;;;0.00;0.00;;;6.70;99.90;;;;;;5035845;28;20263;-72
2023/01/14 01:16:03;;;;;;;0.00;0.00;;;6.70;99.90;;;;;;5034824;28;20032;-71
2023/01/14 01:18:30;;;;;;;0.00;0.00;;;6.70;99.90;;;;;;5029596;28;20020;-71
2023/01/14 01:21:10;;;;;;;0.00;0.00;;;6.70;99.90;;;;;;5036202;28;20037;-71
2023/01/14 01:23:40;;;;;;;0.00;0.00;;;6.60;99.90;;;;;;5033897;28;20508;-70
2023/01/14 01:26:09;;;;;;;0.00;0.00;;;6.60;99.90;;;;;;5036782;28;20626;-71
2023/01/14 01:28:37;;;;;;;0.00;0.00;;;6.60;99.90;;;;;;5036366;28;20104;-71
2023/01/14 01:31:09;;;;;;;0.00;0.00;;;6.60;99.90;;;;;;5031177;28;20086;-71
2023/01/14 01:33:35;;;;;;;0.00;0.00;;;6.50;99.90;;;;;;5035899;28;20024;-70
2023/01/14 01:36:04;;;;;;;0.00;0.00;;;6.60;99.90;;;;;;5031103;28;20025;-71
2023/01/14 01:38:30;;;;;;;0.00;0.00;;;6.50;99.90;;;;;;5035368;28;20067;-71
2023/01/14 01:40:57;;;;;;;0.00;0.00;;;6.50;99.90;;;;;;5039467;28;20032;-70
2023/01/14 01:43:25;;;;;;;0.00;0.00;;;6.60;99.90;;;;;;5034505;28;20032;-71
2023/01/14 01:45:52;;;;;;;0.00;0.00;;;6.50;99.90;;;;;;5035195;28;20829;-70
2023/01/14 01:48:26;;;;;;;;;;;6.60;99.90;;;;;;5035056;28;20146;-70
2023/01/14 01:51:08;;;;;;;0.00;0.00;;;6.50;99.90;;;;;;5036338;28;19905;-70
2023/01/14 01:53:39;;;;;;;0.00;0.00;;;6.50;99.90;;;;;;5034871;28;20020;-70
2023/01/14 01:56:07;;;;;;;0.00;0.00;;;6.50;99.90;;;;;;5031284;28;20045;-70
2023/01/14 01:58:34;;;;;;;0.00;0.00;;;6.50;99.90;;;;;;5035335;28;20186;-71
2023/01/14 02:01:00;;;;;;;0.00;0.00;;;6.50;99.90;;;;;;5034939;28;20032;-69
2023/01/14 02:03:36;;;;;;;0.00;0.00;;;6.40;99.90;;;;;;5038194;28;20175;-70
2023/01/14 02:06:02;;;;;;;0.00;0.00;;;6.40;99.90;;;;;;5031685;28;20017;-70
2023/01/14 02:08:28;;;;;;;0.00;0.00;;;6.40;99.90;;;;;;5034773;28;20096;-70
2023/01/14 02:11:02;;;;;;;0.00;0.00;;;6.40;99.90;;;;;;5035255;28;20029;-71
2023/01/14 02:13:33;;;;;;;0.00;0.00;;;6.50;99.90;;;;;;5036291;28;20293;-71
2023/01/14 02:16:22;;;;;;;0.00;0.00;;;6.50;99.90;;;;;;5035008;28;20074;-71
2023/01/14 02:19:10;;;;;;;0.00;0.00;;;6.50;99.90;;;;;;5026581;28;21908;-70
2023/01/14 02:21:53;;;;;;;0.00;0.00;;;6.50;99.90;;;;;;5037163;28;20027;-70
2023/01/14 02:24:37;;;;;;;0.00;0.00;;;6.50;99.90;;;;;;5034404;28;20075;-70
2023/01/14 02:27:12;;;;;;;0.00;0.00;;;6.60;99.90;;;;;;5038706;28;20704;-70
2023/01/14 02:29:46;;;;;;;0.00;0.00;;;6.60;99.90;;;;;;5033963;28;20033;-70
2023/01/14 02:32:38;;;;;;;0.00;0.00;;;6.50;99.90;;;;;;5029300;28;20056;-70
2023/01/14 02:35:25;;;;;;;0.00;0.00;;;6.50;99.90;;;;;;5032071;28;20108;-71
2023/01/14 02:38:06;;;;;;;0.00;0.00;;;6.40;99.90;;;;;;5035619;28;20025;-71
2023/01/14 02:40:47;;;;;;;0.00;0.00;;;6.40;99.90;;;;;;5033245;28;20059;-71
2023/01/14 02:46:42;;;;;;;0.00;0.00;;;6.40;99.90;;;;;;5012210;28;20021;-70
2023/01/14 02:49:12;;;;;;;0.00;0.00;;;6.40;99.90;;;;;;5032360;28;20044;-71
2023/01/14 02:51:38;;;;;;;0.00;0.00;;;6.40;99.90;;;;;;5033866;28;20053;-71
2023/01/14 02:54:03;;;;;;;0.00;0.00;;;6.40;99.90;;;;;;5028437;28;20366;-70
2023/01/14 02:56:30;;;;;;;0.00;0.00;;;6.50;99.90;;;;;;5035706;28;20028;-70
2023/01/14 02:59:26;;;;;;;0.00;0.00;;;6.50;99.90;;;;;;5032759;28;20029;-70
2023/01/14 03:02:20;;;;;;;0.00;0.00;;;6.60;99.90;;;;;;5028914;28;20029;-70
2023/01/14 03:05:02;;;;;;;0.00;0.00;;;6.60;99.90;;;;;;5033649;28;20025;-71
2023/01/14 03:07:41;;;;;;;0.00;0.00;;;6.50;99.90;;;;;;5034336;28;20036;-70
2023/01/14 03:10:25;;;;;;;0.00;0.00;;;6.50;99.90;;;;;;5032436;28;20025;-71
2023/01/14 03:13:09;;;;;;;0.00;0.00;;;6.50;99.90;;;;;;5033645;28;20025;-70
2023/01/14 03:15:41;;;;;;;0.00;0.00;;;6.50;99.90;;;;;;5029815;28;20876;-70
2023/01/14 03:18:24;;;;;;;0.00;0.00;;;6.50;99.90;;;;;;5034644;28;20546;-71
2023/01/14 03:21:00;;;;;;;0.00;0.00;;;6.50;99.90;;;;;;5034334;28;20411;-70
2023/01/14 03:23:28;;;;;;;0.00;0.00;;;6.50;99.90;;;;;;5033054;28;20120;-71
2023/01/14 03:25:54;;;;;;;0.00;0.00;;;6.50;99.90;;;;;;5032643;28;20063;-70
2023/01/14 03:28:26;;;;;;;0.00;0.00;;;6.50;99.90;;;;;;5034415;28;20021;-70
2023/01/14 03:31:00;;;;;;;0.00;0.00;;;6.50;99.90;;;;;;5034077;28;20029;-70
2023/01/14 03:33:37;;;;;;;0.00;0.00;;;6.50;99.90;;;;;;5037535;28;20028;-70
2023/01/14 03:36:05;;;;;;;0.00;0.00;;;6.50;99.90;;;;;;5032998;28;20029;-71
2023/01/14 03:38:41;;;;;;;0.00;0.00;;;6.50;99.90;;;;;;5035160;28;20044;-70
2023/01/14 03:41:11;;;;;;;0.00;0.00;;;6.50;99.90;;;;;;5029158;28;20044;-71
2023/01/14 03:43:43;;;;;;;0.00;0.00;;;6.50;99.90;;;;;;5037841;28;20090;-71
2023/01/14 03:46:10;;;;;;;0.00;0.00;;;6.50;99.90;;;;;;5039831;28;20021;-70
2023/01/14 03:48:36;;;;;;;0.00;0.00;;;6.50;99.90;;;;;;5038902;28;20071;-70
2023/01/14 03:51:24;;;;;;;0.00;0.00;;;6.50;99.90;;;;;;5037438;28;20029;-70
2023/01/14 03:54:10;;;;;;;0.00;0.00;;;6.50;99.90;;;;;;5042278;28;20028;-71
2023/01/14 03:56:43;;;;;;;0.00;0.00;;;6.50;99.90;;;;;;5036676;28;20020;-70
2023/01/14 03:59:24;;;;;;;0.00;0.00;;;6.50;99.90;;;;;;5037126;28;20017;-70
2023/01/14 04:01:54;;;;;;;0.00;0.00;;;6.50;99.90;;;;;;5036044;28;21206;-71
2023/01/14 04:04:24;;;;;;;0.00;0.00;;;6.40;99.90;;;;;;5037735;28;20025;-71
2023/01/14 04:06:51;;;;;;;0.00;0.00;;;6.40;99.90;;;;;;5042423;28;20037;-70
2023/01/14 04:09:17;;;;;;;0.00;0.00;;;6.40;99.90;;;;;;5038829;28;20043;-70
2023/01/14 04:11:42;;;;;;;0.00;0.00;;;6.40;99.90;;;;;;5037896;28;20033;-71
2023/01/14 04:16:53;;;;;;;0.00;0.00;;;6.40;99.90;;;;;;5036778;28;20659;-71
2023/01/14 04:19:18;;;;;;;0.00;0.00;;;6.40;99.90;;;;;;5038683;28;20084;-70
2023/01/14 04:21:44;;;;;;;0.00;0.00;;;6.40;99.90;;;;;;5041995;28;20450;-70
2023/01/14 04:24:11;;;;;;;0.00;0.00;;;6.30;99.90;;;;;;5036563;28;20017;-70
2023/01/14 04:26:37;;;;;;;;;;;6.30;99.90;;;;;;5037613;28;20471;-70
2023/01/14 04:29:03;;;;;;;0.00;0.00;;;6.20;99.90;;;;;;5037462;28;19905;-71
2023/01/14 04:31:29;;;;;;;;;;;6.20;99.90;;;;;;5040200;28;20025;-70
2023/01/14 04:33:55;;;;;;;0.00;0.00;;;6.20;99.90;;;;;;5034173;28;20296;-70
2023/01/14 04:36:20;;;;;;;0.00;0.00;;;6.10;99.90;;;;;;5039139;28;20078;-70
2023/01/14 04:38:46;;;;;;;0.00;0.00;;;6.10;99.90;;;;;;5037699;28;20493;-70
2023/01/14 04:43:59;;;;;;;0.00;0.00;;;6.00;99.90;;;;;;5037452;28;20028;-70
2023/01/14 04:46:25;;;;;;;0.00;0.00;;;6.00;99.90;;;;;;5036793;28;20020;-70
2023/01/14 04:48:51;;;;;;;0.00;0.00;;;6.00;99.90;;;;;;5036707;28;20032;-70
2023/01/14 04:51:17;;;;;;;0.00;0.00;;;6.00;99.90;;;;;;5036137;28;20163;-71
2023/01/14 04:53:43;;;;;;;0.00;0.00;;;6.00;99.90;;;;;;5036313;28;20083;-71
2023/01/14 04:56:09;;;;;;;0.75;0.20;;;6.00;99.90;;;;;;5036760;28;20083;-70
2023/01/14 04:58:35;;;;;;;0.00;0.00;;;6.00;99.90;;;;;;5036467;28;20423;-70
2023/01/14 05:01:00;;;;;;;0.00;0.00;;;6.10;99.90;;;;;;5035942;28;20033;-70
2023/01/14 05:03:26;;;;;;;0.00;0.00;;;6.00;99.90;;;;;;5035727;28;20025;-70
2023/01/14 05:05:52;;;;;;;0.00;0.00;;;6.00;99.90;;;;;;5034086;28;20167;-70
2023/01/14 05:08:19;;;;;;;0.00;0.00;;;6.10;99.90;;;;;;5034848;28;20653;-70
2023/01/14 05:10:49;;;;;;;0.00;0.00;;;6.20;99.90;;;;;;5036260;28;20108;-70
2023/01/14 05:13:15;;;;;;;0.00;0.00;;;6.20;99.90;;;;;;5036550;28;20097;-71
2023/01/14 05:15:43;;;;;;;0.00;0.00;;;6.20;99.90;;;;;;5036391;28;20123;-70
2023/01/14 05:18:11;;;;;;;0.00;0.00;;;6.20;99.90;;;;;;5035179;28;20033;-71
2023/01/14 05:20:40;;;;;;;0.00;0.00;;;6.20;99.90;;;;;;5035598;28;20028;-70
2023/01/14 05:23:11;;;;;;;0.00;0.00;;;6.20;99.90;;;;;;5039290;28;20025;-71
2023/01/14 05:25:37;;;;;;;0.00;0.00;;;6.20;99.90;;;;;;5039303;28;20025;-70
2023/01/14 05:28:05;;;;;;;0.00;0.00;;;6.30;99.90;;;;;;5037939;28;20021;-70
2023/01/14 05:30:31;;;;;;;0.00;0.00;;;6.40;99.90;;;;;;5035202;28;20140;-70
2023/01/14 05:32:57;;;;;;;0.00;0.00;;;6.50;99.90;;;;;;5031499;28;21041;-70
2023/01/14 05:35:24;;;;;;;0.00;0.00;;;6.60;99.90;;;;;;5035375;28;20501;-70
2023/01/14 05:37:50;;;;;;;0.00;0.00;;;6.70;99.90;;;;;;5034676;28;20060;-70
2023/01/14 05:40:17;;;;;;;0.00;0.00;;;6.70;99.90;;;;;;5028266;28;20041;-71
2023/01/14 05:45:41;;;;;;;0.00;0.00;;;6.70;99.90;;;;;;5035726;28;20043;-70
2023/01/14 05:48:11;;;;;;;0.00;0.00;;;6.70;99.90;;;;;;5049849;28;20470;-70
2023/01/14 05:50:37;;;;;;;0.00;0.00;;;6.70;99.90;;;;;;5032280;28;20098;-70
2023/01/14 05:53:04;;;;;;;0.00;0.00;;;6.60;99.90;;;;;;5039523;28;20024;-71
2023/01/14 05:55:30;;;;;;;;;;;6.50;99.90;;;;;;5033039;28;20037;-71
2023/01/14 05:58:04;;;;;;;0.00;0.00;;;6.40;99.90;;;;;;5041026;28;19983;-70
2023/01/14 06:06:22;;;;;;;0.00;0.00;;;6.30;99.90;;;;;;5039801;28;20476;-70
2023/01/14 06:09:09;;;;;;;0.00;0.00;;;6.40;99.90;;;;;;5036800;28;20632;-70
2023/01/14 06:11:35;;;;;;;0.00;0.00;;;6.40;99.90;;;;;;5035107;28;20036;-70
2023/01/14 06:14:03;;;;;;;0.00;0.00;;;6.40;99.90;;;;;;5034680;28;20114;-70
2023/01/14 06:16:32;;;;;;;0.00;0.00;;;6.60;99.90;;;;;;5034579;28;20033;-70
2023/01/14 06:18:58;;;;;;;0.00;0.00;;;6.60;99.90;;;;;;5034908;28;20342;-70
2023/01/14 06:21:30;;;;;;;0.00;0.00;;;6.60;99.90;;;;;;5034645;28;20075;-71
2023/01/14 06:23:57;;;;;;;0.00;0.00;;;6.70;99.90;;;;;;5035853;28;20025;-70
2023/01/14 06:26:27;;;;;;;0.00;0.00;;;6.70;99.90;;;;;;5030674;28;20024;-70
2023/01/14 06:29:01;;;;;;;0.00;0.00;;;6.70;99.90;;;;;;5035505;28;20032;-70
2023/01/14 06:31:27;;;;;;;0.00;0.00;;;6.70;99.90;;;;;;5034284;28;20486;-71
2023/01/14 06:33:55;;;;;;;0.00;0.00;;;6.60;99.90;;;;;;5033858;28;20374;-70
2023/01/14 06:36:23;;;;;;;0.00;0.00;;;6.50;99.90;;;;;;5034538;28;20029;-71
2023/01/14 06:38:49;;;;;;;0.00;0.00;;;6.40;99.90;;;;;;5039126;28;20037;-70
2023/01/14 06:41:15;;;;;;;0.00;0.00;;;6.50;99.90;;;;;;5031026;28;20040;-71
2023/01/14 06:43:42;;;;;;;0.00;0.00;;;6.40;99.90;;;;;;5036850;28;20017;-71
2023/01/14 06:46:09;;;;;;;0.00;0.00;;;6.30;99.90;;;;;;5039486;28;20013;-71
2023/01/14 06:48:35;;;;;;;0.00;0.00;;;6.30;99.90;;;;;;5035450;28;20036;-71
2023/01/14 06:51:06;;;;;;;0.00;0.00;;;6.20;99.90;;;;;;5032868;28;20025;-70
2023/01/14 06:53:32;;;;;;;0.00;0.00;;;6.20;99.90;;;;;;5035615;28;20048;-70
2023/01/14 06:56:06;;;;;;;0.00;0.00;;;6.30;99.90;;;;;;5035138;28;20025;-70
2023/01/14 06:58:32;;;;;;;0.00;0.00;;;6.20;99.90;;;;;;5032987;28;20119;-70
2023/01/14 07:00:58;;;;;;;0.00;0.00;;;6.20;99.90;;;;;;5032209;28;20355;-70
2023/01/14 07:03:24;;;;;;;0.00;0.00;;;6.20;99.90;;;;;;5035236;28;20025;-70
2023/01/14 07:05:50;;;;;;;0.00;0.00;;;6.30;99.90;;;;;;5032791;28;20119;-70
2023/01/14 07:08:16;;;;;;;0.00;0.00;;;6.70;99.90;;;;;;5033830;28;20104;-70
2023/01/14 07:10:42;;;;;;;0.00;0.00;;;7.20;99.90;;;;;;5033467;28;20029;-70
2023/01/14 07:13:08;;;;;;;0.00;0.00;;;7.40;99.90;;;;;;5034775;28;20029;-70
2023/01/14 07:15:33;;;;;;;0.00;0.00;;;8.10;99.90;;;;;;5034750;28;20037;-71
2023/01/14 07:17:59;;;;;;;0.00;0.00;;;9.10;99.90;;;;;;5038245;28;20783;-71
2023/01/14 07:20:25;;;;;;;0.00;0.00;;;10.20;99.90;;;;;;5033257;28;20025;-70
2023/01/14 07:22:50;;;;;;;0.00;0.00;;;11.20;99.90;;;;;;5039564;28;20024;-71
2023/01/14 07:25:17;;;;;;;0.00;0.00;;;12.20;99.90;;;;;;5037615;28;20143;-71
2023/01/14 07:27:43;;;;;;;0.00;0.00;;;13.20;97.60;;;;;;5035716;28;20024;-71
2023/01/14 07:30:09;;;;;;;0.00;0.00;;;14.00;92.90;;;;;;5037375;28;20025;-71
2023/01/14 07:32:35;;;;;;;0.00;0.00;;;14.30;90.30;;;;;;5037770;28;20029;-71
2023/01/14 07:35:01;;;;;;;0.00;0.00;;;15.10;86.80;;;;;;5041911;28;20162;-71
2023/01/14 07:37:26;;;;;;;0.00;0.00;;;15.80;79.60;;;;;;5036889;28;20271;-71
2023/01/14 07:39:52;;;;;;;0.00;0.00;;;16.40;76.90;;;;;;5039864;28;20029;-71
2023/01/14 07:42:18;;;;;;;0.00;0.00;;;16.70;73.40;;;;;;5034975;28;21016;-71
2023/01/14 07:44:44;;;;;;;;;;;17.20;71.30;;;;;;5038959;28;20271;-71
2023/01/14 07:47:15;;;;;;;0.00;0.00;;;17.20;67.30;;;;;;5036356;28;19905;-71
2023/01/14 07:49:41;;;;;;;0.00;0.00;;;17.10;66.90;;;;;;5037856;28;20028;-71
2023/01/14 07:52:08;;;;;;;0.00;0.00;;;16.30;68.40;;;;;;5037412;28;20032;-71
2023/01/14 07:54:34;;;;;;;0.00;0.00;;;15.30;69.80;;;;;;5035758;28;20090;-72
2023/01/14 07:57:00;;;;;;;0.00;0.00;;;14.30;73.70;;;;;;5037253;28;20025;-72
2023/01/14 07:59:27;;;;;;;0.00;0.00;;;13.70;78.10;;;;;;5035135;28;20459;-72
2023/01/14 08:01:54;;;;;;;0.00;0.00;;;13.20;81.70;;;;;;5038872;28;20509;-72
2023/01/14 08:04:19;;;;;;;0.00;0.00;;;12.70;85.50;;;;;;5039513;28;20021;-72
2023/01/14 08:06:45;;;;;;;0.00;0.00;;;12.20;88.10;;;;;;5038665;28;21665;-72
2023/01/14 08:09:12;;;;;;;0.00;0.00;;;12.00;90.10;;;;;;5035876;28;20032;-72
2023/01/14 08:11:37;;;;;;;0.00;0.00;;;11.80;92.00;;;;;;5036710;28;20029;-72
2023/01/14 08:14:03;;;;;;;0.00;0.00;;;11.70;92.00;;;;;;5036423;28;20744;-72
2023/01/14 08:16:29;;;;;;;0.00;0.00;;;11.70;92.40;;;;;;5035629;28;20132;-71
2023/01/14 08:18:55;;;;;;;0.00;0.00;;;11.50;93.00;;;;;;5035874;28;20057;-71
2023/01/14 08:21:21;;;;;;;0.00;0.00;;;11.80;92.80;;;;;;5041826;28;20259;-71
2023/01/14 08:23:47;;;;;;;0.00;0.00;;;12.00;92.40;;;;;;5034434;28;20260;-72
2023/01/14 08:26:13;;;;;;;0.00;0.00;;;12.40;90.90;;;;;;5037981;28;20029;-71
2023/01/14 08:28:40;;;;;;;0.00;0.00;;;14.20;84.70;;;;;;5034742;28;20018;-71
2023/01/14 08:31:12;;;;;;;0.00;0.00;;;15.60;75.30;;;;;;5041147;28;20029;-72
2023/01/14 08:33:38;;;;;;;0.00;0.00;;;17.00;68.90;;;;;;5037239;28;20052;-72
2023/01/14 08:36:06;;;;;;;;;;;18.50;65.10;;;;;;5038644;28;20031;-72
2023/01/14 08:38:35;;;;;;;;;;;19.60;60.90;;;;;;5037524;28;19916;-72
2023/01/14 08:41:10;;;;;;;0.00;0.00;;;20.40;57.00;;;;;;5038259;28;19920;-72
2023/01/14 08:43:39;;;;;;;0.00;0.00;;;21.40;54.50;;;;;;5036204;28;20466;-72
2023/01/14 08:46:07;;;;;;;0.00;0.00;;;22.30;52.30;;;;;;5036509;28;20021;-73
2023/01/14 08:48:34;;;;;;;0.00;0.00;;;23.30;50.40;;;;;;5033765;28;20199;-72
2023/01/14 08:51:07;;;;;;;;;;;24.30;47.40;;;;;;5038103;28;20024;-72
2023/01/14 08:53:35;;;;;;;0.00;0.00;;;24.60;45.40;;;;;;5035716;28;20752;-73
2023/01/14 08:56:09;;;;;;;0.00;0.00;;;25.30;44.90;;;;;;5038148;28;20025;-73
2023/01/14 08:58:36;;;;;;;0.00;0.00;;;26.60;44.40;;;;;;5036909;28;20366;-73
2023/01/14 09:01:07;;;;;;;0.05;0.05;;;26.70;43.00;;;;;;5036773;28;20339;-73
2023/01/14 09:03:35;;;;;;;0.00;0.00;;;26.90;42.80;;;;;;5034242;28;20029;-73
2023/01/14 09:06:06;;;;;;;0.00;0.00;;;27.30;42.20;;;;;;5037259;28;20020;-74
2023/01/14 09:17:21;;;;;;;0.00;0.00;;;29.30;40.40;;;;;;5032587;28;20799;-73
2023/01/14 09:19:58;;;;;;;0.00;0.00;;;28.80;40.40;;;;;;5035763;28;20072;-74
2023/01/14 09:22:28;;;;;;;0.00;0.00;;;29.20;40.20;;;;;;5037953;28;20103;-73
2023/01/14 09:24:54;;;;;;;0.00;0.00;;;28.90;39.50;;;;;;5038867;28;20017;-73
2023/01/14 09:27:21;;;;;;;0.00;0.00;;;29.00;39.60;;;;;;5033628;28;20107;-73
2023/01/14 09:29:46;;;;;;;0.00;0.00;;;28.60;39.30;;;;;;5036119;28;20041;-73
2023/01/14 09:32:15;;;;;;;0.00;0.00;;;29.90;41.00;;;;;;5035764;28;20025;-70
2023/01/14 09:34:43;;;;;;;0.00;0.00;;;28.10;40.40;;;;;;5033469;28;20160;-71
2023/01/14 09:37:09;;;;;;;0.00;0.00;;;28.80;41.30;;;;;;5031715;28;20579;-71
2023/01/14 09:39:34;;;;;;;0.00;0.00;;;29.00;40.30;;;;;;5034759;28;20031;-71
2023/01/14 09:42:04;;;;;;;0.00;0.00;;;29.60;40.20;;;;;;5034331;28;20021;-71
2023/01/14 09:44:30;;;;;;;0.00;0.00;;;30.10;39.40;;;;;;5036508;28;20383;-74
2023/01/14 09:46:56;;;;;;;0.00;0.00;;;30.10;39.70;;;;;;5035325;28;20048;-72
2023/01/14 09:49:27;;;;;;;0.00;0.00;;;30.90;38.50;;;;;;5037427;28;20402;-72
2023/01/14 09:52:05;;;;;;;0.00;0.00;;;30.20;38.70;;;;;;5037105;28;20017;-72
2023/01/14 09:54:54;;;;;;;0.00;0.00;;;29.90;38.50;;;;;;5030987;28;20036;-74
2023/01/14 09:57:46;;;;;;;0.00;0.00;;;29.50;38.10;;;;;;5035144;28;20032;-73
2023/01/14 10:00:55;;;;;;;0.00;0.00;;;30.10;38.40;;;;;;5031784;28;20116;-74
2023/01/14 10:03:59;;;;;;;0.00;0.00;;;28.80;38.40;;;;;;5040280;28;20027;-73
2023/01/14 10:06:27;;;;;;;0.00;0.00;;;29.20;38.10;;;;;;5036984;28;20536;-73
2023/01/14 10:09:09;;;;;;;0.00;0.00;;;29.40;38.40;;;;;;5036085;28;20517;-74
2023/01/14 10:11:42;;;;;;;0.00;0.00;;;30.10;38.00;;;;;;5036554;28;20024;-74
2023/01/14 10:14:18;;;;;;;0.00;0.00;;;27.70;38.40;;;;;;5032571;28;20044;-74
2023/01/14 10:16:48;;;;;;;0.00;0.00;;;28.90;39.10;;;;;;5036480;28;20347;-73
2023/01/14 10:19:18;;;;;;;0.00;0.00;;;28.30;37.80;;;;;;5041202;28;20076;-72
2023/01/14 10:22:11;;;;;;;0.00;0.00;;;28.50;37.70;;;;;;5030393;28;20025;-72
2023/01/14 10:24:41;;;;;;;0.00;0.00;;;28.40;38.70;;;;;;5029047;28;20029;-73
2023/01/14 10:27:16;;;;;;;0.00;0.00;;;28.40;38.50;;;;;;5038903;28;20021;-73
2023/01/14 10:29:45;;;;;;;0.00;0.00;;;29.00;39.30;;;;;;5031392;28;20508;-73
2023/01/14 10:32:14;;;;;;;0.00;0.00;;;28.90;38.30;;;;;;5034499;28;20129;-74
2023/01/14 10:34:47;;;;;;;0.00;0.00;;;29.40;40.00;;;;;;5036470;28;20025;-73
2023/01/14 10:37:15;;;;;;;0.00;0.00;;;29.20;37.70;;;;;;5035093;28;20389;-72
2023/01/14 10:39:53;;;;;;;0.00;0.00;;;29.10;38.70;;;;;;5035223;28;20108;-73
2023/01/14 10:42:24;;;;;;;0.00;0.00;;;28.50;39.20;;;;;;5034419;28;20043;-72
2023/01/14 10:44:51;;;;;;;0.00;0.00;;;28.50;39.00;;;;;;5034217;28;20032;-71
2023/01/14 10:47:17;;;;;;;0.00;0.00;;;29.10;39.40;;;;;;5034537;28;20061;-70
2023/01/14 10:49:45;;;;;;;;;;;29.10;38.20;;;;;;5033266;28;20082;-72
2023/01/14 10:52:30;;;;;;;0.00;0.00;;;28.90;38.10;;;;;;5033288;28;19912;-72
2023/01/14 10:55:06;;;;;;;0.00;0.00;;;29.00;40.00;;;;;;5030719;28;20024;-72
2023/01/14 10:57:36;;;;;;;0.00;0.00;;;29.50;38.60;;;;;;5037078;28;20028;-72
2023/01/14 11:00:04;;;;;;;0.00;0.00;;;29.40;39.20;;;;;;5029499;28;20037;-68
2023/01/14 11:02:36;;;;;;;0.00;0.00;;;29.30;38.50;;;;;;5033546;28;20013;-68
2023/01/14 11:05:22;;;;;;;0.00;0.00;;;28.50;39.00;;;;;;5032817;28;20424;-72
2023/01/14 11:07:50;;;;;;;0.00;0.00;;;29.00;39.20;;;;;;5034415;28;20025;-65
2023/01/14 11:10:22;;;;;;;0.00;0.00;;;27.20;39.60;;;;;;5028440;28;20032;-66
2023/01/14 11:12:48;;;;;;;0.00;0.00;;;24.20;42.50;;;;;;5031432;28;21484;-71
2023/01/14 11:15:36;;;;;;;0.00;0.00;;;21.40;44.60;;;;;;5029539;28;20033;-68
2023/01/14 11:18:21;;;;;;;0.00;0.00;;;19.60;48.30;;;;;;5032843;28;20029;-68
2023/01/14 11:21:08;;;;;;;0.00;0.00;;;18.10;50.20;;;;;;5033344;28;20033;-68
2023/01/14 11:23:45;;;;;;;0.00;0.00;;;17.20;52.10;;;;;;5036938;28;20021;-66
2023/01/14 11:26:43;;;;;;;0.08;0.08;;;16.50;53.60;;;;;;5032681;28;20021;-66
2023/01/14 11:29:25;;;;;;;0.00;0.00;;;16.10;54.70;;;;;;4999705;28;20036;-71
2023/01/14 11:31:55;;;;;;;0.00;0.00;;;15.60;55.50;;;;;;5033892;28;20029;-72
2023/01/14 11:34:28;;;;;;;0.00;0.00;;;15.40;55.50;;;;;;5035246;28;20029;-72
2023/01/14 11:37:10;;;;;;;0.00;0.00;;;15.30;56.40;;;;;;5033205;28;20049;-72
2023/01/14 11:39:37;;;;;;;0.00;0.00;;;15.10;56.30;;;;;;5034702;28;20112;-72
2023/01/14 11:42:21;;;;;;;0.00;0.00;;;15.00;56.20;;;;;;5034867;28;20025;-72
2023/01/14 11:44:59;;;;;;;0.00;0.00;;;14.80;56.90;;;;;;5031194;28;20032;-72
2023/01/14 11:47:26;;;;;;;0.00;0.00;;;14.70;57.00;;;;;;5047561;28;20017;-71
2023/01/14 11:50:16;;;;;;;0.00;0.00;;;14.60;62.60;;;;;;5039024;28;20052;-72
2023/01/14 11:52:57;;;;;;;0.00;0.00;;;14.50;59.20;;;;;;5031698;28;20033;-67
2023/01/14 11:55:23;;;;;;;0.00;0.00;;;14.50;60.90;;;;;;5034373;28;20538;-72
2023/01/14 11:57:49;;;;;;;0.00;0.00;;;14.70;58.10;;;;;;5035813;28;20155;-74
2023/01/14 12:00:15;;;;;;;0.00;0.00;;;14.70;57.90;;;;;;5035500;28;20880;-73
2023/01/14 12:02:46;;;;;;;0.00;0.00;;;14.50;57.50;;;;;;5035023;28;20028;-72
2023/01/14 12:05:16;;;;;;;0.00;0.00;;;14.50;58.00;;;;;;5039818;28;20078;-73
2023/01/14 12:07:46;;;;;;;0.00;0.00;;;14.40;57.90;;;;;;5035032;28;20510;-72
2023/01/14 12:10:20;;;;;;;0.00;0.00;;;14.30;58.60;;;;;;5039265;28;20048;-72
2023/01/14 12:19:35;;;;;;;0.00;0.00;;;13.70;61.30;;;;;;5038954;28;20087;-73
2023/01/14 12:22:12;;;;;;;0.00;0.00;;;13.60;61.20;;;;;;5038695;28;20025;-73
2023/01/14 12:25:04;;;;;;;0.00;0.00;;;13.40;61.70;;;;;;5038062;28;20025;-73
2023/01/14 12:27:43;;;;;;;0.00;0.00;;;13.40;62.30;;;;;;5038956;28;20024;-73
2023/01/14 12:30:12;;;;;;;0.00;0.00;;;13.40;62.00;;;;;;5037948;28;20021;-73
2023/01/14 12:32:43;;;;;;;0.00;0.00;;;13.30;61.70;;;;;;5037334;28;20021;-72
2023/01/14 12:35:15;;;;;;;0.00;0.00;;;13.30;63.20;;;;;;5037697;28;20510;-72
2023/01/14 12:37:59;;;;;;;0.00;0.00;;;13.40;62.10;;;;;;5036716;28;20690;-73
2023/01/14 12:46:25;;;;;;;0.00;0.00;;;13.50;61.90;;;;;;5039952;28;20095;-73
2023/01/14 12:48:51;;;;;;;0.00;0.00;;;13.60;61.60;;;;;;5037580;28;20029;-73
2023/01/14 12:51:30;;;;;;;0.00;0.00;;;13.50;60.90;;;;;;5033866;28;20114;-73
2023/01/14 12:54:03;;;;;;;0.00;0.00;;;13.20;60.40;;;;;;5037408;28;20614;-73
2023/01/14 12:56:33;;;;;;;0.00;0.00;;;13.20;61.50;;;;;;5030594;28;20535;-73
2023/01/14 12:59:03;;;;;;;0.00;0.00;;;13.10;62.10;;;;;;5036972;28;20021;-73
2023/01/14 13:01:47;;;;;;;0.00;0.00;;;13.20;61.50;;;;;;5036462;28;20021;-73
2023/01/14 13:04:25;;;;;;;0.00;0.00;;;13.10;63.00;;;;;;5036659;28;20096;-73
2023/01/14 13:06:58;;;;;;;0.00;0.00;;;13.00;62.90;;;;;;5033580;28;20096;-73
2023/01/14 13:09:45;;;;;;;0.00;0.00;;;12.90;64.00;;;;;;5038043;28;20032;-73
2023/01/14 13:12:26;;;;;;;0.00;0.00;;;12.70;63.80;;;;;;5040917;28;20024;-73
2023/01/14 13:14:56;;;;;;;0.00;0.00;;;12.80;63.70;;;;;;5040105;28;20503;-73
2023/01/14 13:17:35;;;;;;;0.00;0.00;;;12.70;64.30;;;;;;5041763;28;20029;-73
2023/01/14 13:20:05;;;;;;;0.00;0.00;;;12.70;64.40;;;;;;5036615;28;20040;-71
2023/01/14 13:22:38;;;;;;;0.00;0.00;;;12.70;63.70;;;;;;5034564;28;20013;-73
2023/01/14 13:25:31;;;;;;;0.00;0.00;;;12.60;64.20;;;;;;5042017;28;20016;-73
2023/01/14 13:28:00;;;;;;;0.00;0.00;;;12.40;65.50;;;;;;5030779;28;20029;-73
2023/01/14 13:30:25;;;;;;;0.00;0.00;;;12.30;65.40;;;;;;5040321;28;20025;-72
2023/01/14 13:33:00;;;;;;;0.00;0.00;;;12.40;65.60;;;;;;5039129;28;20021;-73
2023/01/14 13:35:31;;;;;;;0.00;0.00;;;12.40;66.30;;;;;;5039989;28;20025;-73
2023/01/14 13:38:22;;;;;;;2.50;0.10;;;12.40;65.70;;;;;;5041748;28;20035;-74
2023/01/14 13:41:06;;;;;;;0.00;0.00;;;12.40;65.30;;;;;;5039103;28;20561;-73
2023/01/14 13:43:54;;;;;;;0.00;0.00;;;12.40;65.80;;;;;;5040250;28;20028;-73
2023/01/14 13:46:25;;;;;;;0.38;0.20;;;12.40;66.80;;;;;;5038856;28;20082;-73
2023/01/14 13:48:57;;;;;;;0.00;0.00;;;12.30;65.70;;;;;;5039797;28;20445;-73
2023/01/14 13:51:29;;;;;;;0.00;0.00;;;12.30;65.40;;;;;;5040379;28;20370;-73
2023/01/14 13:54:00;;;;;;;1.08;0.25;;;12.20;65.80;;;;;;5032702;28;20025;-73
2023/01/14 13:56:29;;;;;;;0.00;0.00;;;12.00;66.50;;;;;;5041362;28;20112;-72